Time;durP1;ratioP1;P1;durP2;ratioP2;P2;SDS_P1;SDS_P2;PMS_P1;PMS_P2;Temp;Humidity;BMP_temperature;BMP_pressure;BME280_temperature;BME280_humidity;BME280_pressure;Samples;Min_cycle;Max_cycle;Signal;HPM_P1;HPM_P2
2021/01/05 00:01:57;;;;;;;;;;;22.40;40.70;;;;;;1540865;76;1944;-73
2021/01/05 00:03:58;;;;;;;;;;;22.50;40.80;;;;;;1537523;76;736;-75
2021/01/05 00:06:00;;;;;;;;;;;22.40;40.60;;;;;;1545687;76;1179;-68
2021/01/05 00:08:02;;;;;;;;;;;22.40;40.60;;;;;;1538697;76;819;-73
2021/01/05 00:10:05;;;;;;;;;;;22.40;40.60;;;;;;1537200;76;739;-72
2021/01/05 00:12:08;;;;;;;;;;;22.50;40.80;;;;;;1534919;76;775;-72
2021/01/05 00:14:10;;;;;;;;;;;22.50;40.70;;;;;;1537616;76;799;-72
2021/01/05 00:16:12;;;;;;;;;;;22.50;40.70;;;;;;1536511;76;1150;-73
2021/01/05 00:18:13;;;;;;;;;;;22.50;40.90;;;;;;1543327;76;707;-73
2021/01/05 00:20:16;;;;;;;;;;;22.50;40.70;;;;;;1516259;77;719;-73
2021/01/05 00:22:18;;;;;;;;;;;22.50;40.70;;;;;;1535988;76;1943;-73
2021/01/05 00:24:20;;;;;;;;;;;22.50;40.60;;;;;;1544297;76;724;-73
2021/01/05 00:26:22;;;;;;;;;;;22.40;40.50;;;;;;1548329;76;1100;-73
2021/01/05 00:28:24;;;;;;;;;;;22.50;40.60;;;;;;1554255;76;718;-73
2021/01/05 00:30:26;;;;;;;;;;;22.50;40.70;;;;;;1526097;76;930;-73
2021/01/05 00:32:28;;;;;;;;;;;22.50;40.70;;;;;;1553332;76;967;-72
2021/01/05 00:34:30;;;;;;;;;;;22.50;40.80;;;;;;1516635;76;724;-72
2021/01/05 00:36:32;;;;;;;;;;;22.50;40.80;;;;;;1498318;77;1202;-73
2021/01/05 00:38:34;;;;;;;;;;;22.50;40.90;;;;;;1506471;77;896;-71
2021/01/05 00:40:36;;;;;;;;;;;22.50;40.80;;;;;;1507288;77;1954;-75
2021/01/05 00:42:37;;;;;;;;;;;22.50;41.00;;;;;;1504471;77;723;-76
2021/01/05 00:44:39;;;;;;;;;;;22.40;40.80;;;;;;1544775;76;915;-77
2021/01/05 00:46:41;;;;;;;;;;;22.50;41.00;;;;;;1509016;77;1132;-73
2021/01/05 00:48:43;;;;;;;;;;;22.40;41.00;;;;;;1531363;76;696;-73
2021/01/05 00:50:45;;;;;;;;;;;22.40;40.90;;;;;;1539528;75;726;-76
2021/01/05 00:52:47;;;;;;;;;;;22.40;41.00;;;;;;1506198;77;742;-77
2021/01/05 00:54:49;;;;;;;;;;;22.40;40.90;;;;;;1542693;76;777;-73
2021/01/05 00:56:58;;;;;;;;;;;22.40;40.80;;;;;;1538179;76;1158;-73
2021/01/05 00:59:00;;;;;;;;;;;22.40;40.80;;;;;;1535716;76;729;-75
2021/01/05 01:01:01;;;;;;;;;;;22.40;40.80;;;;;;1501169;77;1954;-73
2021/01/05 01:03:03;;;;;;;;;;;22.50;40.90;;;;;;1539713;76;736;-74
2021/01/05 01:05:05;;;;;;;;;;;22.40;40.70;;;;;;1538172;76;726;-72
2021/01/05 01:07:07;;;;;;;;;;;22.40;40.70;;;;;;1538902;76;1149;-72
2021/01/05 01:09:09;;;;;;;;;;;22.40;40.70;;;;;;1541386;76;716;-73
2021/01/05 01:11:11;;;;;;;;;;;22.50;40.80;;;;;;1501877;77;802;-73
2021/01/05 01:13:13;;;;;;;;;;;22.50;40.80;;;;;;1544157;76;900;-72
2021/01/05 01:15:15;;;;;;;;;;;22.50;40.80;;;;;;1518722;77;818;-72
2021/01/05 01:17:17;;;;;;;;;;;22.40;40.70;;;;;;1540677;76;1170;-75
2021/01/05 01:19:19;;;;;;;;;;;22.50;40.70;;;;;;1529155;76;735;-73
2021/01/05 01:21:21;;;;;;;;;;;22.50;40.70;;;;;;1514398;77;1965;-73
2021/01/05 01:23:23;;;;;;;;;;;22.40;40.50;;;;;;1540402;76;772;-73
2021/01/05 01:25:25;;;;;;;;;;;22.50;40.60;;;;;;1557545;76;836;-77
2021/01/05 01:27:27;;;;;;;;;;;22.50;40.50;;;;;;1503835;77;1128;-73
2021/01/05 01:29:29;;;;;;;;;;;22.50;40.50;;;;;;1526036;76;741;-73
2021/01/05 01:31:30;;;;;;;;;;;22.50;40.50;;;;;;1530121;76;754;-75
2021/01/05 01:33:33;;;;;;;;;;;22.60;40.50;;;;;;1495417;77;743;-72
2021/01/05 01:35:34;;;;;;;;;;;22.60;40.50;;;;;;1515968;76;772;-75
2021/01/05 01:37:36;;;;;;;;;;;22.50;40.60;;;;;;1517413;76;1147;-74
2021/01/05 01:39:39;;;;;;;;;;;22.50;40.70;;;;;;1514421;76;729;-74
2021/01/05 01:41:41;;;;;;;;;;;22.50;40.80;;;;;;1515066;76;1937;-74
2021/01/05 01:43:43;;;;;;;;;;;22.50;40.90;;;;;;1530518;76;732;-74
2021/01/05 01:45:45;;;;;;;;;;;22.50;40.80;;;;;;1534395;76;732;-74
2021/01/05 01:47:47;;;;;;;;;;;22.60;40.70;;;;;;1527514;76;1101;-76
2021/01/05 01:49:50;;;;;;;;;;;22.60;40.60;;;;;;1516622;76;747;-75
2021/01/05 01:51:52;;;;;;;;;;;22.60;40.60;;;;;;1515996;76;736;-75
2021/01/05 01:54:01;;;;;;;;;;;22.70;40.70;;;;;;1518830;76;711;-74
2021/01/05 01:56:11;;;;;;;;;;;22.70;40.60;;;;;;1517761;76;1107;-74
2021/01/05 01:58:27;;;;;;;;;;;22.60;40.50;;;;;;1545964;74;213327;-60
2021/01/05 02:00:36;;;;;;;;;;;22.60;40.50;;;;;;1565005;74;720;-61
2021/01/05 02:02:45;;;;;;;;;;;22.60;40.50;;;;;;1570805;74;1934;-60
2021/01/05 02:04:52;;;;;;;;;;;22.60;40.70;;;;;;1570700;74;831;-60
2021/01/05 02:07:01;;;;;;;;;;;22.50;40.70;;;;;;1575989;74;1230;-60
2021/01/05 02:09:21;;;;;;;;;;;22.50;40.70;;;;;;1557931;74;1658;-60
2021/01/05 02:11:27;;;;;;;;;;;22.50;40.70;;;;;;1575032;74;810;-59
2021/01/05 02:13:37;;;;;;;;;;;22.50;40.70;;;;;;1574438;74;1898;-59
2021/01/05 02:15:40;;;;;;;;;;;22.60;40.60;;;;;;1581039;73;1708;-61
2021/01/05 02:17:50;;;;;;;;;;;22.70;40.60;;;;;;1586989;74;1867;-62
2021/01/05 02:19:53;;;;;;;;;;;22.60;40.50;;;;;;1577203;74;1073;-60
2021/01/05 02:21:59;;;;;;;;;;;22.60;40.30;;;;;;1587073;74;1930;-61
2021/01/05 02:24:18;;;;;;;;;;;22.60;40.20;;;;;;1571775;74;1954;-62
2021/01/05 02:26:21;;;;;;;;;;;22.70;40.30;;;;;;1514070;76;1149;-61
2021/01/05 02:28:25;;;;;;;;;;;22.70;40.20;;;;;;1539197;74;890;-61
2021/01/05 02:30:28;;;;;;;;;;;22.70;40.20;;;;;;1584980;74;785;-61
2021/01/05 02:32:32;;;;;;;;;;;22.70;40.20;;;;;;1574985;74;1931;-60
2021/01/05 02:34:38;;;;;;;;;;;22.70;40.20;;;;;;1575795;74;1607;-61
2021/01/05 02:36:47;;;;;;;;;;;22.70;40.20;;;;;;1577873;74;1160;-60
2021/01/05 02:38:57;;;;;;;;;;;22.70;40.10;;;;;;1578293;74;750;-61
2021/01/05 02:41:15;;;;;;;;;;;22.70;40.00;;;;;;1570828;74;1867;-60
2021/01/05 02:43:22;;;;;;;;;;;22.60;40.00;;;;;;1562419;74;1723;-60
2021/01/05 02:45:35;;;;;;;;;;;22.60;40.00;;;;;;1574874;74;756;-61
2021/01/05 02:47:38;;;;;;;;;;;22.60;40.10;;;;;;1581672;74;1785;-60
2021/01/05 02:49:42;;;;;;;;;;;22.60;40.20;;;;;;1576844;74;1830;-61
2021/01/05 02:51:57;;;;;;;;;;;22.60;40.10;;;;;;1582401;74;1732;-60
2021/01/05 02:54:01;;;;;;;;;;;22.70;40.10;;;;;;1580702;74;1643;-60
2021/01/05 02:56:21;;;;;;;;;;;22.70;40.00;;;;;;1586884;73;1137;-61
2021/01/05 02:58:41;;;;;;;;;;;22.70;40.00;;;;;;1576006;74;814;-60
2021/01/05 03:01:00;;;;;;;;;;;22.70;40.00;;;;;;1568915;74;765;-60
2021/01/05 03:03:07;;;;;;;;;;;22.70;40.00;;;;;;1573629;74;1922;-58
2021/01/05 03:05:09;;;;;;;;;;;22.70;39.90;;;;;;1573634;74;714;-59
2021/01/05 03:07:15;;;;;;;;;;;22.70;40.00;;;;;;1572707;74;1126;-60
2021/01/05 03:09:35;;;;;;;;;;;22.70;39.90;;;;;;1573836;74;1910;-61
2021/01/05 03:11:39;;;;;;;;;;;22.70;39.80;;;;;;1576333;74;708;-62
2021/01/05 03:13:42;;;;;;;;;;;22.70;39.80;;;;;;1586122;74;1561;-61
2021/01/05 03:15:45;;;;;;;;;;;22.70;39.80;;;;;;1581391;73;1114;-60
2021/01/05 03:17:50;;;;;;;;;;;22.70;39.80;;;;;;1569759;74;788;-59
2021/01/05 03:19:54;;;;;;;;;;;22.80;39.90;;;;;;1567632;74;766;-61
2021/01/05 03:21:57;;;;;;;;;;;22.70;39.80;;;;;;1567681;74;1982;-60
2021/01/05 03:23:59;;;;;;;;;;;22.70;39.80;;;;;;1577710;74;745;-60
2021/01/05 03:26:01;;;;;;;;;;;22.80;39.70;;;;;;1565309;74;1132;-60
2021/01/05 03:28:04;;;;;;;;;;;22.80;39.70;;;;;;1576850;74;768;-62
2021/01/05 03:30:07;;;;;;;;;;;22.80;39.70;;;;;;1587840;74;818;-60
2021/01/05 03:32:11;;;;;;;;;;;22.80;39.60;;;;;;1581134;74;751;-61
2021/01/05 03:34:13;;;;;;;;;;;22.80;39.50;;;;;;1579487;74;801;-60
2021/01/05 03:36:15;;;;;;;;;;;22.80;39.60;;;;;;1577406;74;1177;-61
2021/01/05 03:38:17;;;;;;;;;;;22.80;39.60;;;;;;1586025;74;731;-62
2021/01/05 03:40:18;;;;;;;;;;;22.80;39.60;;;;;;1579008;74;956;-61
2021/01/05 03:42:20;;;;;;;;;;;22.80;39.50;;;;;;1590091;74;1934;-62
2021/01/05 03:44:22;;;;;;;;;;;22.80;39.50;;;;;;1582339;74;803;-62
2021/01/05 03:46:26;;;;;;;;;;;22.80;39.60;;;;;;1584979;74;1142;-61
2021/01/05 03:48:28;;;;;;;;;;;22.80;39.70;;;;;;1570775;74;1470;-60
2021/01/05 03:50:29;;;;;;;;;;;22.80;39.50;;;;;;1562261;74;809;-61
2021/01/05 03:52:31;;;;;;;;;;;22.80;39.40;;;;;;1572430;74;745;-62
2021/01/05 03:54:33;;;;;;;;;;;22.80;39.40;;;;;;1578236;74;780;-60
2021/01/05 03:56:35;;;;;;;;;;;22.90;39.40;;;;;;1587993;74;1135;-63
2021/01/05 03:58:37;;;;;;;;;;;22.90;39.30;;;;;;1573256;74;816;-62
2021/01/05 04:00:39;;;;;;;;;;;22.80;39.30;;;;;;1578609;74;762;-63
2021/01/05 04:02:41;;;;;;;;;;;22.80;39.50;;;;;;1574140;74;1948;-62
2021/01/05 04:04:43;;;;;;;;;;;22.80;39.70;;;;;;1578543;74;860;-62
2021/01/05 04:06:44;;;;;;;;;;;22.80;39.70;;;;;;1576957;74;1188;-62
2021/01/05 04:08:46;;;;;;;;;;;22.80;39.90;;;;;;1562072;74;787;-62
2021/01/05 04:10:48;;;;;;;;;;;22.80;40.00;;;;;;1572501;74;706;-61
2021/01/05 04:12:53;;;;;;;;;;;22.80;40.00;;;;;;1555399;74;1010;-61
2021/01/05 04:14:55;;;;;;;;;;;22.90;40.10;;;;;;1561759;74;711;-62
2021/01/05 04:16:57;;;;;;;;;;;22.90;40.20;;;;;;1561605;74;1143;-62
2021/01/05 04:18:59;;;;;;;;;;;22.80;40.20;;;;;;1567930;74;678;-61
2021/01/05 04:21:01;;;;;;;;;;;22.80;40.20;;;;;;1572988;74;742;-61
2021/01/05 04:23:03;;;;;;;;;;;22.80;40.40;;;;;;1572267;74;1922;-62
2021/01/05 04:25:05;;;;;;;;;;;22.80;40.30;;;;;;1571734;74;776;-61
2021/01/05 04:27:07;;;;;;;;;;;22.80;40.40;;;;;;1568801;74;1110;-62
2021/01/05 04:29:09;;;;;;;;;;;22.80;40.50;;;;;;1571840;74;763;-61
2021/01/05 04:31:11;;;;;;;;;;;22.80;40.50;;;;;;1585781;74;757;-61
2021/01/05 04:33:13;;;;;;;;;;;22.80;40.50;;;;;;1576795;74;727;-60
2021/01/05 04:35:15;;;;;;;;;;;22.80;40.50;;;;;;1574811;74;744;-60
2021/01/05 04:37:17;;;;;;;;;;;22.80;40.50;;;;;;1557149;74;1125;-61
2021/01/05 04:39:18;;;;;;;;;;;22.90;40.50;;;;;;1575960;74;782;-60
2021/01/05 04:41:20;;;;;;;;;;;22.90;40.50;;;;;;1574237;74;810;-63
2021/01/05 04:43:36;;;;;;;;;;;22.90;40.40;;;;;;1564708;74;1940;-62
2021/01/05 04:45:39;;;;;;;;;;;22.90;40.40;;;;;;1560034;74;1152;-62
2021/01/05 04:47:58;;;;;;;;;;;22.90;40.40;;;;;;1569849;74;1940;-62
2021/01/05 04:50:05;;;;;;;;;;;22.90;40.50;;;;;;1569938;74;785;-62
2021/01/05 04:52:10;;;;;;;;;;;22.90;40.50;;;;;;1567917;74;782;-63
2021/01/05 04:54:16;;;;;;;;;;;22.90;40.50;;;;;;1568209;74;740;-62
2021/01/05 04:56:18;;;;;;;;;;;22.90;40.50;;;;;;1567481;74;1131;-62
2021/01/05 04:58:30;;;;;;;;;;;22.90;40.40;;;;;;1578430;74;734;-63
2021/01/05 05:00:35;;;;;;;;;;;22.90;40.40;;;;;;1571418;74;764;-62
2021/01/05 05:02:54;;;;;;;;;;;23.00;40.30;;;;;;1567160;74;1914;-61
2021/01/05 05:05:00;;;;;;;;;;;22.90;40.30;;;;;;1554220;74;775;-61
2021/01/05 05:07:07;;;;;;;;;;;22.90;40.30;;;;;;1549906;74;1675;-61
2021/01/05 05:09:13;;;;;;;;;;;22.90;40.30;;;;;;1586125;74;1975;-62
2021/01/05 05:11:16;;;;;;;;;;;23.00;40.40;;;;;;1574305;74;717;-61
2021/01/05 05:13:30;;;;;;;;;;;23.00;40.40;;;;;;1568856;74;739;-62
2021/01/05 05:15:52;;;;;;;;;;;23.00;40.40;;;;;;1575420;74;891;-63
2021/01/05 05:17:58;;;;;;;;;;;23.00;40.30;;;;;;1578531;74;910;-63
2021/01/05 05:20:05;;;;;;;;;;;23.00;40.30;;;;;;1582154;74;1958;-63
2021/01/05 05:22:09;;;;;;;;;;;23.00;40.20;;;;;;1579076;74;1991;-63
2021/01/05 05:24:18;;;;;;;;;;;23.00;40.30;;;;;;1583654;74;825;-63
2021/01/05 05:26:22;;;;;;;;;;;23.00;40.20;;;;;;1568586;74;2120;-63
2021/01/05 05:28:28;;;;;;;;;;;23.00;40.20;;;;;;1572777;74;796;-61
2021/01/05 05:30:37;;;;;;;;;;;23.10;40.20;;;;;;1568745;74;698;-62
2021/01/05 05:32:40;;;;;;;;;;;23.00;40.10;;;;;;1555840;74;714;-63
2021/01/05 05:34:46;;;;;;;;;;;23.00;40.10;;;;;;1558668;74;763;-62
2021/01/05 05:36:50;;;;;;;;;;;23.10;40.30;;;;;;1548374;74;1837;-62
2021/01/05 05:38:53;;;;;;;;;;;23.10;40.30;;;;;;1570726;74;1904;-63
2021/01/05 05:40:57;;;;;;;;;;;23.10;40.50;;;;;;1574452;74;709;-63
2021/01/05 05:43:13;;;;;;;;;;;23.10;40.30;;;;;;1520998;75;1915;-61
2021/01/05 05:45:17;;;;;;;;;;;23.10;40.20;;;;;;1568893;74;1485;-62
2021/01/05 05:47:20;;;;;;;;;;;23.10;40.30;;;;;;1569804;74;1122;-62
2021/01/05 05:49:39;;;;;;;;;;;23.10;40.40;;;;;;1562180;74;750;-59
2021/01/05 05:51:45;;;;;;;;;;;23.10;40.40;;;;;;1550228;74;779;-61
2021/01/05 05:53:48;;;;;;;;;;;23.10;40.50;;;;;;1558144;74;768;-61
2021/01/05 05:55:51;;;;;;;;;;;23.10;40.50;;;;;;1564260;74;1080;-62
2021/01/05 05:57:53;;;;;;;;;;;23.10;40.50;;;;;;1569972;74;2181;-62
2021/01/05 05:59:57;;;;;;;;;;;23.10;40.50;;;;;;1571761;74;816;-62
2021/01/05 06:01:58;;;;;;;;;;;23.10;40.50;;;;;;1560942;74;752;-61
2021/01/05 06:04:00;;;;;;;;;;;23.10;40.60;;;;;;1568218;74;1949;-63
2021/01/05 06:06:03;;;;;;;;;;;23.10;40.60;;;;;;1559224;74;1172;-63
2021/01/05 06:08:06;;;;;;;;;;;23.10;40.70;;;;;;1571567;74;773;-62
2021/01/05 06:10:09;;;;;;;;;;;23.10;40.70;;;;;;1562962;74;749;-63
2021/01/05 06:12:11;;;;;;;;;;;23.00;40.50;;;;;;1563338;74;826;-63
2021/01/05 06:14:12;;;;;;;;;;;23.00;40.60;;;;;;1591543;74;794;-61
2021/01/05 06:16:14;;;;;;;;;;;23.00;40.50;;;;;;1569373;74;1170;-62
2021/01/05 06:18:16;;;;;;;;;;;23.00;40.50;;;;;;1567554;74;753;-62
2021/01/05 06:20:18;;;;;;;;;;;23.20;40.50;;;;;;1571717;74;787;-61
2021/01/05 06:22:20;;;;;;;;;;;23.10;40.70;;;;;;1581369;74;818;-62
2021/01/05 06:24:22;;;;;;;;;;;23.10;40.50;;;;;;1572991;74;1922;-61
2021/01/05 06:26:24;;;;;;;;;;;23.20;40.60;;;;;;1560838;74;1147;-61
2021/01/05 06:28:26;;;;;;;;;;;23.20;40.50;;;;;;1568300;74;758;-60
2021/01/05 06:30:28;;;;;;;;;;;23.20;40.40;;;;;;1556663;74;700;-61
2021/01/05 06:32:30;;;;;;;;;;;23.20;40.40;;;;;;1557760;74;676;-60
2021/01/05 06:34:31;;;;;;;;;;;23.20;40.30;;;;;;1567876;74;765;-60
2021/01/05 06:36:33;;;;;;;;;;;23.20;40.30;;;;;;1570078;74;1123;-60
2021/01/05 06:38:35;;;;;;;;;;;23.20;40.50;;;;;;1556482;74;758;-62
2021/01/05 06:40:37;;;;;;;;;;;23.20;40.60;;;;;;1569760;74;805;-63
2021/01/05 06:42:39;;;;;;;;;;;23.20;40.60;;;;;;1578615;74;1941;-61
2021/01/05 06:44:41;;;;;;;;;;;23.10;40.70;;;;;;1573317;74;778;-63
2021/01/05 06:46:43;;;;;;;;;;;23.10;40.80;;;;;;1558912;74;1170;-62
2021/01/05 06:48:45;;;;;;;;;;;23.00;40.70;;;;;;1570606;74;791;-63
2021/01/05 06:50:47;;;;;;;;;;;23.10;40.80;;;;;;1574544;74;786;-61
2021/01/05 06:52:49;;;;;;;;;;;23.10;40.90;;;;;;1564123;74;740;-63
2021/01/05 06:54:51;;;;;;;;;;;23.00;40.70;;;;;;1569088;74;791;-63
2021/01/05 06:56:54;;;;;;;;;;;23.10;40.90;;;;;;1565508;74;1105;-63
2021/01/05 06:58:55;;;;;;;;;;;23.10;40.90;;;;;;1576054;74;779;-62
2021/01/05 07:00:57;;;;;;;;;;;23.10;40.90;;;;;;1561630;74;792;-63
2021/01/05 07:02:59;;;;;;;;;;;23.00;40.80;;;;;;1563039;74;1940;-62
2021/01/05 07:05:01;;;;;;;;;;;23.10;40.90;;;;;;1568683;74;797;-62
2021/01/05 07:07:03;;;;;;;;;;;23.00;40.70;;;;;;1573762;74;1131;-61
2021/01/05 07:09:05;;;;;;;;;;;23.10;40.90;;;;;;1570746;74;753;-61
2021/01/05 07:11:07;;;;;;;;;;;23.10;40.90;;;;;;1567756;74;793;-61
2021/01/05 07:13:09;;;;;;;;;;;23.00;40.60;;;;;;1570260;74;878;-62
2021/01/05 07:15:11;;;;;;;;;;;23.00;40.60;;;;;;1576735;74;716;-62
2021/01/05 07:17:13;;;;;;;;;;;23.10;40.70;;;;;;1558968;74;1164;-61
2021/01/05 07:19:15;;;;;;;;;;;23.00;40.60;;;;;;1577021;74;685;-61
2021/01/05 07:21:17;;;;;;;;;;;23.00;40.70;;;;;;1576152;74;797;-61
2021/01/05 07:23:19;;;;;;;;;;;23.00;40.70;;;;;;1563802;74;1942;-60
2021/01/05 07:25:21;;;;;;;;;;;23.00;40.70;;;;;;1569903;74;790;-60
2021/01/05 07:27:22;;;;;;;;;;;23.10;40.70;;;;;;1577865;74;1056;-61
2021/01/05 07:29:24;;;;;;;;;;;23.10;40.70;;;;;;1569574;74;817;-61
2021/01/05 07:31:26;;;;;;;;;;;23.00;40.60;;;;;;1567868;74;797;-61
2021/01/05 07:33:28;;;;;;;;;;;23.00;40.70;;;;;;1568102;74;823;-61
2021/01/05 07:35:30;;;;;;;;;;;23.00;40.70;;;;;;1558845;74;826;-62
2021/01/05 07:37:32;;;;;;;;;;;23.00;40.80;;;;;;1573035;74;1052;-60
2021/01/05 07:39:34;;;;;;;;;;;23.10;40.80;;;;;;1576449;74;760;-61
2021/01/05 07:41:36;;;;;;;;;;;23.00;40.70;;;;;;1575267;74;854;-61
2021/01/05 07:43:38;;;;;;;;;;;23.00;40.70;;;;;;1566917;74;1914;-61
2021/01/05 07:45:40;;;;;;;;;;;23.00;40.70;;;;;;1568534;73;1118;-61
2021/01/05 07:47:42;;;;;;;;;;;23.00;41.10;;;;;;1583944;74;750;-61
2021/01/05 07:49:44;;;;;;;;;;;23.10;41.20;;;;;;1570587;74;677;-61
2021/01/05 07:51:46;;;;;;;;;;;23.10;41.10;;;;;;1579106;74;792;-60
2021/01/05 07:53:48;;;;;;;;;;;23.10;41.00;;;;;;1569173;74;658;-61
2021/01/05 07:55:50;;;;;;;;;;;23.10;41.00;;;;;;1569678;74;1138;-61
2021/01/05 07:57:52;;;;;;;;;;;23.20;41.00;;;;;;1533200;73;218173;-70
2021/01/05 07:59:54;;;;;;;;;;;23.20;40.90;;;;;;1492354;78;725;-71
2021/01/05 08:01:56;;;;;;;;;;;23.20;41.00;;;;;;1488878;78;691;-71
2021/01/05 08:03:58;;;;;;;;;;;23.10;40.90;;;;;;1505986;77;1942;-71
2021/01/05 08:06:00;;;;;;;;;;;23.10;40.70;;;;;;1471583;78;667;-70
2021/01/05 08:08:02;;;;;;;;;;;23.10;40.80;;;;;;1520791;75;1176;-71
2021/01/05 08:10:05;;;;;;;;;;;23.20;40.80;;;;;;1506638;77;729;-71
2021/01/05 08:12:08;;;;;;;;;;;23.20;40.80;;;;;;1522135;76;771;-70
2021/01/05 08:14:10;;;;;;;;;;;23.10;40.80;;;;;;1537958;75;1141;-72
2021/01/05 08:16:13;;;;;;;;;;;23.10;40.80;;;;;;1538748;75;668;-70
2021/01/05 08:18:15;;;;;;;;;;;23.20;40.80;;;;;;1526399;77;1074;-72
2021/01/05 08:20:17;;;;;;;;;;;23.10;40.90;;;;;;1541575;77;909;-71
2021/01/05 08:22:19;;;;;;;;;;;23.10;40.80;;;;;;1531700;75;767;-72
2021/01/05 08:24:21;;;;;;;;;;;23.20;41.00;;;;;;1529388;75;1937;-70
2021/01/05 08:26:23;;;;;;;;;;;23.20;41.00;;;;;;1544167;75;698;-71
2021/01/05 08:28:25;;;;;;;;;;;23.20;41.00;;;;;;1549101;75;1156;-70
2021/01/05 08:30:34;;;;;;;;;;;23.20;41.10;;;;;;1537797;75;708;-74
2021/01/05 08:32:36;;;;;;;;;;;23.20;41.00;;;;;;1564278;75;715;-71
2021/01/05 08:34:37;;;;;;;;;;;23.20;40.80;;;;;;1526288;76;705;-71
2021/01/05 08:36:39;;;;;;;;;;;23.30;40.70;;;;;;1525942;76;709;-71
2021/01/05 08:38:41;;;;;;;;;;;23.30;40.50;;;;;;1533187;75;1090;-70
2021/01/05 08:40:43;;;;;;;;;;;23.30;40.50;;;;;;1540523;75;676;-70
2021/01/05 08:42:45;;;;;;;;;;;23.40;40.40;;;;;;1530879;75;715;-70
2021/01/05 08:44:47;;;;;;;;;;;23.40;40.30;;;;;;1547859;75;1944;-70
2021/01/05 08:46:49;;;;;;;;;;;23.40;40.40;;;;;;1544336;75;800;-69
2021/01/05 08:48:50;;;;;;;;;;;23.40;40.40;;;;;;1543091;75;1077;-68
2021/01/05 08:50:52;;;;;;;;;;;23.40;40.40;;;;;;1543823;75;788;-70
2021/01/05 08:52:56;;;;;;;;;;;23.30;40.30;;;;;;1530376;77;778;-68
2021/01/05 08:54:58;;;;;;;;;;;23.40;40.50;;;;;;1527002;76;1056;-70
2021/01/05 08:57:00;;;;;;;;;;;23.40;40.40;;;;;;1542871;75;1140;-71
2021/01/05 08:59:01;;;;;;;;;;;23.40;40.30;;;;;;1542204;75;791;-72
2021/01/05 09:01:03;;;;;;;;;;;23.40;40.50;;;;;;1540547;75;757;-70
2021/01/05 09:03:05;;;;;;;;;;;23.30;40.50;;;;;;1548303;75;636;-70
2021/01/05 09:05:08;;;;;;;;;;;23.40;40.70;;;;;;1550668;75;1940;-69
2021/01/05 09:07:10;;;;;;;;;;;23.30;40.90;;;;;;1530507;76;1113;-70
2021/01/05 09:09:11;;;;;;;;;;;23.30;40.70;;;;;;1534193;75;684;-69
2021/01/05 09:11:17;;;;;;;;;;;23.30;39.70;;;;;;1530319;77;774;-70
2021/01/05 09:13:21;;;;;;;;;;;23.30;39.80;;;;;;1518899;76;721;-66
2021/01/05 09:15:23;;;;;;;;;;;23.30;39.40;;;;;;1537776;75;1951;-69
2021/01/05 09:17:25;;;;;;;;;;;23.20;39.20;;;;;;1525352;77;1293;-70
2021/01/05 09:19:27;;;;;;;;;;;23.20;39.30;;;;;;1545591;75;849;-73
2021/01/05 09:21:30;;;;;;;;;;;23.30;39.30;;;;;;1536345;75;713;-71
2021/01/05 09:23:31;;;;;;;;;;;23.30;39.20;;;;;;1548441;75;1929;-68
2021/01/05 09:25:33;;;;;;;;;;;23.30;39.20;;;;;;1522456;77;775;-65
2021/01/05 09:27:35;;;;;;;;;;;23.30;39.20;;;;;;1546103;75;1119;-68
2021/01/05 09:29:37;;;;;;;;;;;23.30;39.00;;;;;;1529733;77;726;-66
2021/01/05 09:31:42;;;;;;;;;;;23.40;38.90;;;;;;1548494;75;737;-65
2021/01/05 09:33:44;;;;;;;;;;;23.30;38.70;;;;;;1546827;77;668;-65
2021/01/05 09:35:49;;;;;;;;;;;23.30;38.50;;;;;;1534133;75;729;-69
2021/01/05 09:37:51;;;;;;;;;;;23.40;38.30;;;;;;1506774;76;1175;-65
2021/01/05 09:39:53;;;;;;;;;;;23.40;38.10;;;;;;1518778;76;718;-65
2021/01/05 09:41:56;;;;;;;;;;;23.40;37.90;;;;;;1534383;77;722;-68
2021/01/05 09:43:58;;;;;;;;;;;23.40;37.70;;;;;;1532469;77;1928;-68
2021/01/05 09:46:00;;;;;;;;;;;23.30;37.50;;;;;;1533164;76;709;-69
2021/01/05 09:48:04;;;;;;;;;;;23.30;37.30;;;;;;1540256;77;1153;-69
2021/01/05 09:50:06;;;;;;;;;;;23.30;37.10;;;;;;1541485;75;1552;-68
2021/01/05 09:52:08;;;;;;;;;;;23.30;37.00;;;;;;1538939;77;723;-69
2021/01/05 09:54:10;;;;;;;;;;;23.30;36.80;;;;;;1523194;77;742;-69
2021/01/05 09:56:12;;;;;;;;;;;23.30;36.70;;;;;;1520733;77;749;-69
2021/01/05 09:58:14;;;;;;;;;;;23.30;36.50;;;;;;1528637;77;1085;-69
2021/01/05 10:00:16;;;;;;;;;;;23.30;36.40;;;;;;1535368;76;741;-69
2021/01/05 10:02:18;;;;;;;;;;;23.30;36.40;;;;;;1533103;77;723;-67
2021/01/05 10:04:20;;;;;;;;;;;23.20;36.50;;;;;;1533437;77;1935;-68
2021/01/05 10:06:23;;;;;;;;;;;23.30;36.80;;;;;;1537162;75;731;-69
2021/01/05 10:08:25;;;;;;;;;;;23.20;36.70;;;;;;1533298;77;1625;-67
2021/01/05 10:10:27;;;;;;;;;;;23.20;36.70;;;;;;1527634;77;730;-68
2021/01/05 10:12:29;;;;;;;;;;;23.20;36.70;;;;;;1535886;77;682;-68
2021/01/05 10:14:31;;;;;;;;;;;23.20;36.70;;;;;;1540751;77;797;-72
2021/01/05 10:16:33;;;;;;;;;;;23.20;36.50;;;;;;1534608;76;801;-69
2021/01/05 10:18:35;;;;;;;;;;;23.20;36.80;;;;;;1538775;77;1120;-69
2021/01/05 10:20:37;;;;;;;;;;;23.10;36.70;;;;;;1537079;77;693;-69
2021/01/05 10:22:39;;;;;;;;;;;23.10;36.80;;;;;;1536855;77;751;-70
2021/01/05 10:24:41;;;;;;;;;;;23.10;36.80;;;;;;1546363;77;1905;-69
2021/01/05 10:26:46;;;;;;;;;;;23.10;36.80;;;;;;1542453;77;819;-69
2021/01/05 10:28:48;;;;;;;;;;;23.10;36.80;;;;;;1542607;75;1101;-69
2021/01/05 10:30:49;;;;;;;;;;;23.10;36.80;;;;;;1544312;76;725;-69
2021/01/05 10:32:51;;;;;;;;;;;23.10;36.70;;;;;;1540584;77;682;-69
2021/01/05 10:34:53;;;;;;;;;;;23.10;36.80;;;;;;1545600;77;796;-69
2021/01/05 10:36:55;;;;;;;;;;;23.10;36.80;;;;;;1536349;77;779;-69
2021/01/05 10:38:57;;;;;;;;;;;23.10;36.80;;;;;;1543045;77;722;-69
2021/01/05 10:40:59;;;;;;;;;;;23.10;36.80;;;;;;1540593;75;817;-68
2021/01/05 10:43:01;;;;;;;;;;;23.00;36.60;;;;;;1538225;77;721;-68
2021/01/05 10:45:03;;;;;;;;;;;23.00;36.70;;;;;;1533330;77;1935;-68
2021/01/05 10:47:05;;;;;;;;;;;23.10;36.80;;;;;;1540616;77;1123;-69
2021/01/05 10:49:07;;;;;;;;;;;23.10;36.70;;;;;;1544787;77;879;-68
2021/01/05 10:51:09;;;;;;;;;;;23.00;36.60;;;;;;1542387;75;826;-69
2021/01/05 10:53:10;;;;;;;;;;;23.00;36.60;;;;;;1542495;75;702;-67
2021/01/05 10:55:13;;;;;;;;;;;23.00;36.50;;;;;;1539080;77;790;-69
2021/01/05 10:57:15;;;;;;;;;;;23.00;36.50;;;;;;1541355;77;1163;-69
2021/01/05 10:59:16;;;;;;;;;;;23.00;36.50;;;;;;1540404;76;724;-68
2021/01/05 11:01:18;;;;;;;;;;;23.00;36.60;;;;;;1536715;75;691;-69
2021/01/05 11:03:20;;;;;;;;;;;23.00;36.50;;;;;;1541295;77;752;-69
2021/01/05 11:05:22;;;;;;;;;;;23.00;36.50;;;;;;1538649;75;1932;-69
2021/01/05 11:07:24;;;;;;;;;;;23.00;36.40;;;;;;1543675;75;1091;-68
2021/01/05 11:09:26;;;;;;;;;;;23.00;36.30;;;;;;1540500;76;705;-70
2021/01/05 11:11:28;;;;;;;;;;;23.00;36.30;;;;;;1537633;77;936;-67
2021/01/05 11:13:31;;;;;;;;;;;23.00;36.30;;;;;;1539335;77;700;-69
2021/01/05 11:15:32;;;;;;;;;;;23.00;36.30;;;;;;1548473;75;747;-68
2021/01/05 11:17:34;;;;;;;;;;;23.00;36.30;;;;;;1538612;77;1185;-69
2021/01/05 11:19:36;;;;;;;;;;;23.00;36.30;;;;;;1545042;77;764;-68
2021/01/05 11:21:38;;;;;;;;;;;23.00;36.30;;;;;;1548299;77;762;-68
2021/01/05 11:23:40;;;;;;;;;;;23.00;36.30;;;;;;1543692;77;732;-69
2021/01/05 11:25:43;;;;;;;;;;;23.00;36.30;;;;;;1531679;77;1938;-69
2021/01/05 11:27:45;;;;;;;;;;;23.00;36.20;;;;;;1547061;77;1173;-69
2021/01/05 11:29:47;;;;;;;;;;;23.00;36.30;;;;;;1536781;77;761;-69
2021/01/05 11:32:02;;;;;;;;;;;23.00;36.30;;;;;;1544198;77;573;-71
2021/01/05 11:34:04;;;;;;;;;;;23.00;36.10;;;;;;1526613;76;1692;-71
2021/01/05 11:36:06;;;;;;;;;;;23.00;36.20;;;;;;1538341;75;729;-69
2021/01/05 11:38:10;;;;;;;;;;;23.00;36.20;;;;;;1544529;77;1162;-70
2021/01/05 11:40:11;;;;;;;;;;;23.00;36.20;;;;;;1542663;76;724;-69
2021/01/05 11:42:14;;;;;;;;;;;23.00;36.20;;;;;;1536143;76;767;-69
2021/01/05 11:44:17;;;;;;;;;;;23.00;36.10;;;;;;1541021;76;917;-68
2021/01/05 11:46:18;;;;;;;;;;;23.10;36.10;;;;;;1545223;75;1945;-69
2021/01/05 11:48:20;;;;;;;;;;;23.00;36.10;;;;;;1540115;77;1218;-69
2021/01/05 11:50:22;;;;;;;;;;;23.00;36.10;;;;;;1549193;76;798;-69
2021/01/05 11:52:25;;;;;;;;;;;23.00;36.00;;;;;;1537855;76;796;-69
2021/01/05 11:54:26;;;;;;;;;;;23.00;36.00;;;;;;1544062;77;768;-71
2021/01/05 11:56:29;;;;;;;;;;;23.00;36.00;;;;;;1543897;76;726;-66
2021/01/05 11:58:31;;;;;;;;;;;23.00;36.10;;;;;;1526397;77;1166;-71
2021/01/05 12:00:33;;;;;;;;;;;23.00;35.90;;;;;;1520208;77;819;-71
2021/01/05 12:02:35;;;;;;;;;;;23.00;36.00;;;;;;1536679;77;773;-71
2021/01/05 12:04:37;;;;;;;;;;;23.00;35.90;;;;;;1511431;77;1921;-71
2021/01/05 12:06:39;;;;;;;;;;;23.00;35.90;;;;;;1518630;76;723;-70
2021/01/05 12:08:41;;;;;;;;;;;23.10;36.00;;;;;;1545539;75;1151;-70
2021/01/05 12:10:44;;;;;;;;;;;23.00;35.80;;;;;;1528066;76;724;-71
2021/01/05 12:12:46;;;;;;;;;;;23.00;35.80;;;;;;1537649;75;1871;-70
2021/01/05 12:14:48;;;;;;;;;;;23.10;35.90;;;;;;1525911;76;781;-71
2021/01/05 12:16:50;;;;;;;;;;;23.00;35.70;;;;;;1540885;75;672;-71